Terminal Aerodrome Forecast
Issued by NWS Cleveland, OH

Home | Current Version | Previous Version | Text Only | Print | Product List | Glossary On
Versions: 1 2 3 4 5 6 7 8 9 10 11 12 13 14 15 16 17 18 19 20
000
FTUS41 KCLE 310500
TAFCAK
TAF
KCAK 310520Z 3106/0106 28005KT P6SM OVC060
     FM310800 20005KT 6SM -SHRASN OVC045
     FM311000 20008KT 6SM -SHRASN BR OVC030
      TEMPO 3110/3114 3SM -SHRASN BR OVC020
     FM311400 26012KT P6SM OVC025
     FM311800 34012KT P6SM OVC025
     FM010000 33005KT P6SM SCT035 OVC080=

USA.gov is the U.S. government's official web portal to all federal, state and local government web resources and services.